sensor_id;sensor_type;location;lat;lon;timestamp;P1;durP1;ratioP1;P2;durP2;ratioP2
53521;SDS011;39398;48.382;9.802;2023-06-26T00:04:08;8.30;;;6.40;;
53521;SDS011;39398;48.382;9.802;2023-06-26T00:09:10;11.02;;;6.68;;
53521;SDS011;39398;48.382;9.802;2023-06-26T00:14:11;8.68;;;6.18;;
53521;SDS011;39398;48.382;9.802;2023-06-26T00:19:14;11.52;;;6.95;;
53521;SDS011;39398;48.382;9.802;2023-06-26T00:24:17;8.95;;;6.90;;
53521;SDS011;39398;48.382;9.802;2023-06-26T00:29:19;10.07;;;7.25;;
53521;SDS011;39398;48.382;9.802;2023-06-26T00:34:22;11.02;;;7.20;;
53521;SDS011;39398;48.382;9.802;2023-06-26T00:39:23;9.85;;;7.00;;
53521;SDS011;39398;48.382;9.802;2023-06-26T00:44:25;10.07;;;6.85;;
53521;SDS011;39398;48.382;9.802;2023-06-26T00:49:28;9.55;;;6.90;;
53521;SDS011;39398;48.382;9.802;2023-06-26T00:54:30;10.10;;;7.28;;
53521;SDS011;39398;48.382;9.802;2023-06-26T00:59:32;8.90;;;7.10;;
53521;SDS011;39398;48.382;9.802;2023-06-26T01:04:35;9.02;;;6.88;;
53521;SDS011;39398;48.382;9.802;2023-06-26T01:09:37;9.80;;;7.22;;
53521;SDS011;39398;48.382;9.802;2023-06-26T01:14:39;11.13;;;7.80;;
53521;SDS011;39398;48.382;9.802;2023-06-26T01:19:42;11.00;;;7.60;;
53521;SDS011;39398;48.382;9.802;2023-06-26T01:24:47;9.02;;;6.97;;
53521;SDS011;39398;48.382;9.802;2023-06-26T01:29:59;9.48;;;7.28;;
53521;SDS011;39398;48.382;9.802;2023-06-26T01:35:04;10.48;;;7.80;;
53521;SDS011;39398;48.382;9.802;2023-06-26T01:40:08;9.07;;;6.95;;
53521;SDS011;39398;48.382;9.802;2023-06-26T01:45:14;9.48;;;6.95;;
53521;SDS011;39398;48.382;9.802;2023-06-26T01:50:24;9.82;;;7.25;;
53521;SDS011;39398;48.382;9.802;2023-06-26T01:55:32;10.63;;;7.25;;
53521;SDS011;39398;48.382;9.802;2023-06-26T02:00:39;9.48;;;7.40;;
53521;SDS011;39398;48.382;9.802;2023-06-26T02:05:42;10.48;;;7.00;;
53521;SDS011;39398;48.382;9.802;2023-06-26T02:10:43;9.73;;;7.43;;
53521;SDS011;39398;48.382;9.802;2023-06-26T02:15:46;9.77;;;7.35;;
53521;SDS011;39398;48.382;9.802;2023-06-26T02:20:48;9.82;;;7.22;;
53521;SDS011;39398;48.382;9.802;2023-06-26T02:25:50;11.00;;;8.02;;
53521;SDS011;39398;48.382;9.802;2023-06-26T02:30:53;10.68;;;7.10;;
53521;SDS011;39398;48.382;9.802;2023-06-26T02:35:54;10.68;;;7.65;;
53521;SDS011;39398;48.382;9.802;2023-06-26T02:40:56;10.55;;;7.53;;
53521;SDS011;39398;48.382;9.802;2023-06-26T02:45:59;10.18;;;7.57;;
53521;SDS011;39398;48.382;9.802;2023-06-26T02:51:00;10.40;;;7.57;;
53521;SDS011;39398;48.382;9.802;2023-06-26T02:56:02;9.85;;;7.15;;
53521;SDS011;39398;48.382;9.802;2023-06-26T03:01:05;11.20;;;7.70;;
53521;SDS011;39398;48.382;9.802;2023-06-26T03:06:07;9.93;;;7.18;;
53521;SDS011;39398;48.382;9.802;2023-06-26T03:11:09;12.25;;;7.35;;
53521;SDS011;39398;48.382;9.802;2023-06-26T03:16:12;11.15;;;8.00;;
53521;SDS011;39398;48.382;9.802;2023-06-26T03:21:14;9.50;;;7.60;;
53521;SDS011;39398;48.382;9.802;2023-06-26T03:26:15;10.10;;;6.80;;
53521;SDS011;39398;48.382;9.802;2023-06-26T03:31:18;9.82;;;7.28;;
53521;SDS011;39398;48.382;9.802;2023-06-26T03:36:21;10.43;;;7.63;;
53521;SDS011;39398;48.382;9.802;2023-06-26T03:41:23;13.38;;;7.97;;
53521;SDS011;39398;48.382;9.802;2023-06-26T03:46:26;10.93;;;7.85;;
53521;SDS011;39398;48.382;9.802;2023-06-26T03:51:28;11.73;;;7.55;;
53521;SDS011;39398;48.382;9.802;2023-06-26T03:56:29;13.90;;;8.20;;
53521;SDS011;39398;48.382;9.802;2023-06-26T04:01:32;12.85;;;7.93;;
53521;SDS011;39398;48.382;9.802;2023-06-26T04:06:34;13.07;;;7.78;;
53521;SDS011;39398;48.382;9.802;2023-06-26T04:11:35;12.00;;;7.90;;
53521;SDS011;39398;48.382;9.802;2023-06-26T04:16:38;10.73;;;7.70;;
53521;SDS011;39398;48.382;9.802;2023-06-26T04:21:40;10.45;;;7.43;;
53521;SDS011;39398;48.382;9.802;2023-06-26T04:26:42;10.82;;;7.60;;
53521;SDS011;39398;48.382;9.802;2023-06-26T04:31:45;10.45;;;7.07;;
53521;SDS011;39398;48.382;9.802;2023-06-26T04:36:46;15.15;;;8.13;;
53521;SDS011;39398;48.382;9.802;2023-06-26T04:41:48;10.23;;;7.65;;
53521;SDS011;39398;48.382;9.802;2023-06-26T04:46:51;10.00;;;7.15;;
53521;SDS011;39398;48.382;9.802;2023-06-26T04:51:53;15.05;;;9.40;;
53521;SDS011;39398;48.382;9.802;2023-06-26T04:56:55;9.40;;;7.47;;
53521;SDS011;39398;48.382;9.802;2023-06-26T05:01:58;9.73;;;7.03;;
53521;SDS011;39398;48.382;9.802;2023-06-26T05:07:00;11.43;;;7.40;;
53521;SDS011;39398;48.382;9.802;2023-06-26T05:12:02;8.73;;;7.13;;
53521;SDS011;39398;48.382;9.802;2023-06-26T05:17:05;10.07;;;7.45;;
53521;SDS011;39398;48.382;9.802;2023-06-26T05:22:08;9.13;;;7.00;;
53521;SDS011;39398;48.382;9.802;2023-06-26T05:27:11;9.63;;;7.07;;
53521;SDS011;39398;48.382;9.802;2023-06-26T05:32:16;9.15;;;6.78;;
53521;SDS011;39398;48.382;9.802;2023-06-26T05:37:18;10.52;;;6.68;;
53521;SDS011;39398;48.382;9.802;2023-06-26T05:42:22;9.77;;;7.32;;
53521;SDS011;39398;48.382;9.802;2023-06-26T05:47:25;9.38;;;7.13;;
53521;SDS011;39398;48.382;9.802;2023-06-26T05:52:27;8.20;;;6.57;;
53521;SDS011;39398;48.382;9.802;2023-06-26T05:57:29;9.57;;;6.93;;
53521;SDS011;39398;48.382;9.802;2023-06-26T06:02:33;7.80;;;6.60;;
53521;SDS011;39398;48.382;9.802;2023-06-26T06:07:35;11.85;;;7.00;;
53521;SDS011;39398;48.382;9.802;2023-06-26T06:12:37;26.88;;;20.88;;
53521;SDS011;39398;48.382;9.802;2023-06-26T06:17:40;7.78;;;6.53;;
53521;SDS011;39398;48.382;9.802;2023-06-26T06:22:42;10.52;;;6.97;;
53521;SDS011;39398;48.382;9.802;2023-06-26T06:27:43;12.25;;;7.32;;
53521;SDS011;39398;48.382;9.802;2023-06-26T06:32:47;8.85;;;6.93;;
53521;SDS011;39398;48.382;9.802;2023-06-26T06:37:48;11.38;;;8.00;;
53521;SDS011;39398;48.382;9.802;2023-06-26T06:42:50;7.35;;;6.30;;
53521;SDS011;39398;48.382;9.802;2023-06-26T06:47:53;10.25;;;6.57;;
53521;SDS011;39398;48.382;9.802;2023-06-26T06:52:55;9.00;;;6.40;;
53521;SDS011;39398;48.382;9.802;2023-06-26T06:57:57;7.13;;;6.25;;
53521;SDS011;39398;48.382;9.802;2023-06-26T07:03:00;12.88;;;7.22;;
53521;SDS011;39398;48.382;9.802;2023-06-26T07:08:02;8.20;;;6.63;;
53521;SDS011;39398;48.382;9.802;2023-06-26T07:13:04;9.07;;;6.88;;
53521;SDS011;39398;48.382;9.802;2023-06-26T07:18:07;11.68;;;6.97;;
53521;SDS011;39398;48.382;9.802;2023-06-26T07:23:09;8.27;;;7.05;;
53521;SDS011;39398;48.382;9.802;2023-06-26T07:28:11;7.72;;;6.80;;
53521;SDS011;39398;48.382;9.802;2023-06-26T07:33:14;13.88;;;6.63;;
53521;SDS011;39398;48.382;9.802;2023-06-26T07:38:15;7.97;;;6.75;;
53521;SDS011;39398;48.382;9.802;2023-06-26T07:43:17;8.85;;;6.72;;
53521;SDS011;39398;48.382;9.802;2023-06-26T07:48:20;7.45;;;6.10;;
53521;SDS011;39398;48.382;9.802;2023-06-26T07:53:21;7.07;;;6.30;;
53521;SDS011;39398;48.382;9.802;2023-06-26T07:58:23;8.60;;;6.88;;
53521;SDS011;39398;48.382;9.802;2023-06-26T08:03:26;9.60;;;6.45;;
53521;SDS011;39398;48.382;9.802;2023-06-26T08:08:36;7.13;;;5.82;;
53521;SDS011;39398;48.382;9.802;2023-06-26T08:13:37;9.77;;;6.55;;
53521;SDS011;39398;48.382;9.802;2023-06-26T08:18:40;7.20;;;5.93;;
53521;SDS011;39398;48.382;9.802;2023-06-26T08:23:41;6.88;;;5.65;;
53521;SDS011;39398;48.382;9.802;2023-06-26T08:28:43;10.38;;;6.40;;
53521;SDS011;39398;48.382;9.802;2023-06-26T08:33:46;8.43;;;5.80;;
53521;SDS011;39398;48.382;9.802;2023-06-26T08:38:48;6.38;;;5.70;;
53521;SDS011;39398;48.382;9.802;2023-06-26T08:43:49;7.82;;;5.63;;
53521;SDS011;39398;48.382;9.802;2023-06-26T08:48:54;10.52;;;5.35;;
53521;SDS011;39398;48.382;9.802;2023-06-26T08:53:57;4.90;;;4.50;;
53521;SDS011;39398;48.382;9.802;2023-06-26T08:58:59;5.53;;;4.80;;
53521;SDS011;39398;48.382;9.802;2023-06-26T09:04:03;5.60;;;4.40;;
53521;SDS011;39398;48.382;9.802;2023-06-26T09:09:05;6.38;;;4.38;;
53521;SDS011;39398;48.382;9.802;2023-06-26T09:14:06;4.68;;;4.28;;
53521;SDS011;39398;48.382;9.802;2023-06-26T09:19:10;4.72;;;4.32;;
53521;SDS011;39398;48.382;9.802;2023-06-26T09:24:13;6.28;;;4.88;;
53521;SDS011;39398;48.382;9.802;2023-06-26T09:29:15;4.82;;;4.32;;
53521;SDS011;39398;48.382;9.802;2023-06-26T09:34:18;5.75;;;4.53;;
53521;SDS011;39398;48.382;9.802;2023-06-26T09:39:20;5.65;;;5.05;;
53521;SDS011;39398;48.382;9.802;2023-06-26T09:44:21;5.07;;;4.57;;
53521;SDS011;39398;48.382;9.802;2023-06-26T09:49:24;7.97;;;4.68;;
53521;SDS011;39398;48.382;9.802;2023-06-26T09:54:26;5.50;;;4.90;;
53521;SDS011;39398;48.382;9.802;2023-06-26T09:59:28;5.93;;;4.88;;
53521;SDS011;39398;48.382;9.802;2023-06-26T10:04:32;5.78;;;4.43;;
53521;SDS011;39398;48.382;9.802;2023-06-26T10:09:34;9.20;;;5.00;;
53521;SDS011;39398;48.382;9.802;2023-06-26T10:14:38;5.82;;;5.22;;
53521;SDS011;39398;48.382;9.802;2023-06-26T10:19:45;8.10;;;4.33;;
53521;SDS011;39398;48.382;9.802;2023-06-26T10:24:49;5.78;;;5.15;;
53521;SDS011;39398;48.382;9.802;2023-06-26T10:29:54;5.40;;;4.90;;
53521;SDS011;39398;48.382;9.802;2023-06-26T10:34:58;6.15;;;4.68;;
53521;SDS011;39398;48.382;9.802;2023-06-26T10:40:00;5.60;;;4.85;;
53521;SDS011;39398;48.382;9.802;2023-06-26T10:45:16;5.60;;;5.00;;
53521;SDS011;39398;48.382;9.802;2023-06-26T10:50:24;4.70;;;4.23;;
53521;SDS011;39398;48.382;9.802;2023-06-26T10:55:27;8.00;;;5.10;;
53521;SDS011;39398;48.382;9.802;2023-06-26T11:00:29;7.22;;;5.38;;
53521;SDS011;39398;48.382;9.802;2023-06-26T11:05:32;7.18;;;5.35;;
53521;SDS011;39398;48.382;9.802;2023-06-26T11:10:51;5.78;;;4.72;;
53521;SDS011;39398;48.382;9.802;2023-06-26T11:15:55;5.63;;;5.10;;
53521;SDS011;39398;48.382;9.802;2023-06-26T11:21:05;5.80;;;5.22;;
53521;SDS011;39398;48.382;9.802;2023-06-26T11:26:13;7.55;;;5.47;;
53521;SDS011;39398;48.382;9.802;2023-06-26T11:31:25;7.57;;;5.35;;
53521;SDS011;39398;48.382;9.802;2023-06-26T11:36:30;6.40;;;5.35;;
53521;SDS011;39398;48.382;9.802;2023-06-26T11:41:33;7.57;;;5.32;;
53521;SDS011;39398;48.382;9.802;2023-06-26T11:46:35;7.63;;;5.35;;
53521;SDS011;39398;48.382;9.802;2023-06-26T11:51:39;6.03;;;5.43;;
53521;SDS011;39398;48.382;9.802;2023-06-26T11:56:40;6.82;;;4.78;;
53521;SDS011;39398;48.382;9.802;2023-06-26T12:01:42;6.72;;;5.22;;
53521;SDS011;39398;48.382;9.802;2023-06-26T12:06:47;6.75;;;5.75;;
53521;SDS011;39398;48.382;9.802;2023-06-26T12:11:51;6.75;;;5.05;;
53521;SDS011;39398;48.382;9.802;2023-06-26T12:16:55;6.53;;;5.43;;
53521;SDS011;39398;48.382;9.802;2023-06-26T12:21:58;7.65;;;5.20;;
53521;SDS011;39398;48.382;9.802;2023-06-26T12:27:00;6.70;;;5.38;;
53521;SDS011;39398;48.382;9.802;2023-06-26T12:32:02;7.80;;;4.88;;
53521;SDS011;39398;48.382;9.802;2023-06-26T12:37:06;6.90;;;4.68;;
53521;SDS011;39398;48.382;9.802;2023-06-26T12:42:09;9.05;;;5.35;;
53521;SDS011;39398;48.382;9.802;2023-06-26T12:47:16;10.83;;;4.17;;
53521;SDS011;39398;48.382;9.802;2023-06-26T12:52:20;8.48;;;5.60;;
53521;SDS011;39398;48.382;9.802;2023-06-26T12:57:24;6.07;;;5.18;;
53521;SDS011;39398;48.382;9.802;2023-06-26T13:02:25;5.97;;;5.38;;
53521;SDS011;39398;48.382;9.802;2023-06-26T13:07:28;7.32;;;5.60;;
53521;SDS011;39398;48.382;9.802;2023-06-26T13:12:30;7.43;;;5.10;;
53521;SDS011;39398;48.382;9.802;2023-06-26T13:17:32;6.00;;;4.38;;
53521;SDS011;39398;48.382;9.802;2023-06-26T13:22:36;8.70;;;6.20;;
53521;SDS011;39398;48.382;9.802;2023-06-26T13:27:39;6.82;;;6.05;;
53521;SDS011;39398;48.382;9.802;2023-06-26T13:32:41;8.57;;;6.25;;
53521;SDS011;39398;48.382;9.802;2023-06-26T13:37:44;7.72;;;6.38;;
53521;SDS011;39398;48.382;9.802;2023-06-26T13:42:45;12.30;;;6.70;;
53521;SDS011;39398;48.382;9.802;2023-06-26T13:47:47;6.28;;;5.47;;
53521;SDS011;39398;48.382;9.802;2023-06-26T13:52:51;9.02;;;6.03;;
53521;SDS011;39398;48.382;9.802;2023-06-26T13:57:52;9.07;;;6.68;;
53521;SDS011;39398;48.382;9.802;2023-06-26T14:02:54;9.13;;;6.80;;
53521;SDS011;39398;48.382;9.802;2023-06-26T14:07:57;7.85;;;6.25;;
53521;SDS011;39398;48.382;9.802;2023-06-26T14:13:00;11.57;;;6.28;;
53521;SDS011;39398;48.382;9.802;2023-06-26T14:18:02;9.82;;;6.88;;
53521;SDS011;39398;48.382;9.802;2023-06-26T14:23:05;6.78;;;6.07;;
53521;SDS011;39398;48.382;9.802;2023-06-26T14:28:06;7.40;;;6.57;;
53521;SDS011;39398;48.382;9.802;2023-06-26T14:33:08;8.50;;;6.60;;
53521;SDS011;39398;48.382;9.802;2023-06-26T14:38:11;7.93;;;7.00;;
53521;SDS011;39398;48.382;9.802;2023-06-26T14:43:13;9.43;;;6.22;;
53521;SDS011;39398;48.382;9.802;2023-06-26T14:48:15;8.27;;;6.50;;
53521;SDS011;39398;48.382;9.802;2023-06-26T14:53:18;6.93;;;5.90;;
53521;SDS011;39398;48.382;9.802;2023-06-26T14:58:21;6.82;;;6.10;;
53521;SDS011;39398;48.382;9.802;2023-06-26T15:03:22;7.28;;;6.25;;
53521;SDS011;39398;48.382;9.802;2023-06-26T15:08:26;7.97;;;6.35;;
53521;SDS011;39398;48.382;9.802;2023-06-26T15:13:27;8.45;;;6.25;;
53521;SDS011;39398;48.382;9.802;2023-06-26T15:18:29;7.53;;;6.47;;
53521;SDS011;39398;48.382;9.802;2023-06-26T15:23:32;8.73;;;5.00;;
53521;SDS011;39398;48.382;9.802;2023-06-26T15:28:34;8.85;;;6.13;;
53521;SDS011;39398;48.382;9.802;2023-06-26T15:33:36;8.77;;;6.80;;
53521;SDS011;39398;48.382;9.802;2023-06-26T15:38:40;8.95;;;6.90;;
53521;SDS011;39398;48.382;9.802;2023-06-26T15:43:41;7.00;;;5.28;;
53521;SDS011;39398;48.382;9.802;2023-06-26T15:48:43;7.57;;;5.00;;
53521;SDS011;39398;48.382;9.802;2023-06-26T15:53:46;10.13;;;5.93;;
53521;SDS011;39398;48.382;9.802;2023-06-26T15:58:47;6.47;;;5.65;;
53521;SDS011;39398;48.382;9.802;2023-06-26T16:03:49;8.20;;;5.32;;
53521;SDS011;39398;48.382;9.802;2023-06-26T16:08:52;8.80;;;5.95;;
53521;SDS011;39398;48.382;9.802;2023-06-26T16:13:54;11.60;;;5.88;;
53521;SDS011;39398;48.382;9.802;2023-06-26T16:18:56;7.25;;;5.30;;
53521;SDS011;39398;48.382;9.802;2023-06-26T16:23:59;8.13;;;5.13;;
53521;SDS011;39398;48.382;9.802;2023-06-26T16:29:01;6.07;;;4.75;;
53521;SDS011;39398;48.382;9.802;2023-06-26T16:34:02;5.95;;;4.85;;
53521;SDS011;39398;48.382;9.802;2023-06-26T16:39:05;5.95;;;4.38;;
53521;SDS011;39398;48.382;9.802;2023-06-26T16:44:08;5.50;;;4.40;;
53521;SDS011;39398;48.382;9.802;2023-06-26T16:49:09;6.47;;;4.38;;
53521;SDS011;39398;48.382;9.802;2023-06-26T16:54:12;5.57;;;4.30;;
53521;SDS011;39398;48.382;9.802;2023-06-26T16:59:14;8.52;;;5.05;;
53521;SDS011;39398;48.382;9.802;2023-06-26T17:04:16;7.20;;;4.55;;
53521;SDS011;39398;48.382;9.802;2023-06-26T17:09:18;6.88;;;4.68;;
53521;SDS011;39398;48.382;9.802;2023-06-26T17:14:21;6.40;;;3.50;;
53521;SDS011;39398;48.382;9.802;2023-06-26T17:19:22;4.40;;;3.58;;
53521;SDS011;39398;48.382;9.802;2023-06-26T17:24:25;5.65;;;3.95;;
53521;SDS011;39398;48.382;9.802;2023-06-26T17:29:28;7.40;;;4.25;;
53521;SDS011;39398;48.382;9.802;2023-06-26T17:34:29;4.13;;;3.60;;
53521;SDS011;39398;48.382;9.802;2023-06-26T17:39:32;6.20;;;3.75;;
53521;SDS011;39398;48.382;9.802;2023-06-26T17:44:35;4.93;;;4.00;;
53521;SDS011;39398;48.382;9.802;2023-06-26T17:49:36;8.65;;;3.42;;
53521;SDS011;39398;48.382;9.802;2023-06-26T17:54:41;6.03;;;3.90;;
53521;SDS011;39398;48.382;9.802;2023-06-26T17:59:42;8.73;;;4.72;;
53521;SDS011;39398;48.382;9.802;2023-06-26T18:04:45;7.22;;;4.38;;
53521;SDS011;39398;48.382;9.802;2023-06-26T18:09:48;8.95;;;5.20;;
53521;SDS011;39398;48.382;9.802;2023-06-26T18:14:49;13.50;;;5.72;;
53521;SDS011;39398;48.382;9.802;2023-06-26T18:19:51;11.32;;;5.05;;
53521;SDS011;39398;48.382;9.802;2023-06-26T18:24:54;10.18;;;5.45;;
53521;SDS011;39398;48.382;9.802;2023-06-26T18:29:56;10.65;;;4.47;;
53521;SDS011;39398;48.382;9.802;2023-06-26T18:34:58;7.82;;;4.15;;
53521;SDS011;39398;48.382;9.802;2023-06-26T18:40:01;10.77;;;4.20;;
53521;SDS011;39398;48.382;9.802;2023-06-26T18:45:02;6.13;;;4.28;;
53521;SDS011;39398;48.382;9.802;2023-06-26T18:50:05;6.07;;;3.28;;
53521;SDS011;39398;48.382;9.802;2023-06-26T18:55:09;5.63;;;3.42;;
53521;SDS011;39398;48.382;9.802;2023-06-26T19:00:12;6.53;;;3.30;;
53521;SDS011;39398;48.382;9.802;2023-06-26T19:05:14;5.78;;;2.20;;
53521;SDS011;39398;48.382;9.802;2023-06-26T19:10:17;6.90;;;2.30;;
53521;SDS011;39398;48.382;9.802;2023-06-26T19:15:19;3.95;;;2.45;;
53521;SDS011;39398;48.382;9.802;2023-06-26T19:20:21;8.52;;;2.80;;
53521;SDS011;39398;48.382;9.802;2023-06-26T19:25:24;3.80;;;2.15;;
53521;SDS011;39398;48.382;9.802;2023-06-26T19:30:26;5.30;;;2.40;;
53521;SDS011;39398;48.382;9.802;2023-06-26T19:35:27;4.10;;;2.40;;
53521;SDS011;39398;48.382;9.802;2023-06-26T19:40:31;5.85;;;2.42;;
53521;SDS011;39398;48.382;9.802;2023-06-26T19:45:33;6.68;;;2.40;;
53521;SDS011;39398;48.382;9.802;2023-06-26T19:50:35;7.22;;;2.75;;
53521;SDS011;39398;48.382;9.802;2023-06-26T19:55:38;6.25;;;2.10;;
53521;SDS011;39398;48.382;9.802;2023-06-26T20:00:40;7.45;;;2.17;;
53521;SDS011;39398;48.382;9.802;2023-06-26T20:05:42;3.97;;;2.03;;
53521;SDS011;39398;48.382;9.802;2023-06-26T20:10:45;5.80;;;2.03;;
53521;SDS011;39398;48.382;9.802;2023-06-26T20:15:47;7.28;;;2.05;;
53521;SDS011;39398;48.382;9.802;2023-06-26T20:20:48;4.88;;;2.05;;
53521;SDS011;39398;48.382;9.802;2023-06-26T20:25:51;3.95;;;1.65;;
53521;SDS011;39398;48.382;9.802;2023-06-26T20:30:53;3.83;;;1.80;;
53521;SDS011;39398;48.382;9.802;2023-06-26T20:35:55;2.92;;;1.63;;
53521;SDS011;39398;48.382;9.802;2023-06-26T20:40:58;6.72;;;1.70;;
53521;SDS011;39398;48.382;9.802;2023-06-26T20:46:01;5.88;;;1.35;;
53521;SDS011;39398;48.382;9.802;2023-06-26T20:51:03;5.75;;;1.80;;
53521;SDS011;39398;48.382;9.802;2023-06-26T20:56:07;5.97;;;1.80;;
53521;SDS011;39398;48.382;9.802;2023-06-26T21:01:10;4.72;;;1.40;;
53521;SDS011;39398;48.382;9.802;2023-06-26T21:06:11;4.72;;;1.73;;
53521;SDS011;39398;48.382;9.802;2023-06-26T21:11:14;6.07;;;2.50;;
53521;SDS011;39398;48.382;9.802;2023-06-26T21:16:16;4.38;;;1.23;;
53521;SDS011;39398;48.382;9.802;2023-06-26T21:21:18;5.85;;;1.60;;
53521;SDS011;39398;48.382;9.802;2023-06-26T21:26:21;6.40;;;1.50;;
53521;SDS011;39398;48.382;9.802;2023-06-26T21:31:23;2.60;;;1.42;;
53521;SDS011;39398;48.382;9.802;2023-06-26T21:36:25;2.80;;;1.38;;
53521;SDS011;39398;48.382;9.802;2023-06-26T21:41:29;4.28;;;1.60;;
53521;SDS011;39398;48.382;9.802;2023-06-26T21:46:33;3.13;;;1.40;;
53521;SDS011;39398;48.382;9.802;2023-06-26T21:51:34;2.05;;;1.25;;
53521;SDS011;39398;48.382;9.802;2023-06-26T21:56:37;6.95;;;1.67;;
53521;SDS011;39398;48.382;9.802;2023-06-26T22:01:39;3.88;;;1.48;;
53521;SDS011;39398;48.382;9.802;2023-06-26T22:06:40;4.32;;;1.30;;
53521;SDS011;39398;48.382;9.802;2023-06-26T22:11:44;3.47;;;1.40;;
53521;SDS011;39398;48.382;9.802;2023-06-26T22:16:45;5.05;;;1.70;;
53521;SDS011;39398;48.382;9.802;2023-06-26T22:21:48;4.85;;;1.63;;
53521;SDS011;39398;48.382;9.802;2023-06-26T22:26:50;3.72;;;1.52;;
53521;SDS011;39398;48.382;9.802;2023-06-26T22:31:52;3.88;;;1.50;;
53521;SDS011;39398;48.382;9.802;2023-06-26T22:36:54;3.55;;;1.50;;
53521;SDS011;39398;48.382;9.802;2023-06-26T22:41:57;6.10;;;1.58;;
53521;SDS011;39398;48.382;9.802;2023-06-26T22:46:58;8.25;;;1.83;;
53521;SDS011;39398;48.382;9.802;2023-06-26T22:52:00;6.22;;;2.03;;
53521;SDS011;39398;48.382;9.802;2023-06-26T22:57:03;4.97;;;1.67;;
53521;SDS011;39398;48.382;9.802;2023-06-26T23:02:05;4.97;;;1.80;;
53521;SDS011;39398;48.382;9.802;2023-06-26T23:07:07;5.30;;;1.63;;
53521;SDS011;39398;48.382;9.802;2023-06-26T23:12:10;4.18;;;1.42;;
53521;SDS011;39398;48.382;9.802;2023-06-26T23:17:12;6.07;;;1.60;;
53521;SDS011;39398;48.382;9.802;2023-06-26T23:22:13;8.45;;;1.60;;
53521;SDS011;39398;48.382;9.802;2023-06-26T23:27:17;4.28;;;1.45;;
53521;SDS011;39398;48.382;9.802;2023-06-26T23:32:19;3.67;;;1.70;;
53521;SDS011;39398;48.382;9.802;2023-06-26T23:37:20;4.60;;;1.67;;
53521;SDS011;39398;48.382;9.802;2023-06-26T23:42:23;9.30;;;1.65;;
53521;SDS011;39398;48.382;9.802;2023-06-26T23:47:25;4.07;;;1.75;;
53521;SDS011;39398;48.382;9.802;2023-06-26T23:52:26;6.00;;;1.88;;
53521;SDS011;39398;48.382;9.802;2023-06-26T23:57:29;7.80;;;1.80;;
